Huvudsida
METAR-TAF:

METAR-TAF

Flygplatser :

Atoka Municipal Airport

Atoka, Oklahoma, USA

latitud: 34-23-54N, longitud: 096-08-53W, höjd: 180 m

Aktuellt väderrapport

Denna rapport gjordes för 21 minuter sedan, klockan 23:35 UTC
Vind 9 kt från nord
Temperatur 4°C
Fuktighet 75%
Tryck 1017 hPa
Sikt: 16.1 km
Mulet på en höjd av 7000 ft
lätt regn

METAR: KAQR 092335Z AUTO 35009KT 10SM -RA OVC070 04/00 A3002 RMK AO2

Tid: 18:56 (23:56 UTC)


TAF: saknas

Aktuella väderrapporter och prognoser från 4000 flygplatser (METAR- och TAF-rapporter).

De tillgängliga stationerna syns som gula och röda prickar på kartan.

För musen över prickarna för att se namnen på stationerna.

Klicka sedan för att få väderrapporter och prognoser.

För att ändra kartan: Klicka på de gröna knapparna med ett svart kors på för att zooma in; den gröna knappen med ett streck på för att zooma ut; eller på de gröna pilarna för angränsande kartor.


METAR-TAF: